Hovedside
METAR-TAF:

METAR-TAF

Lufthavner :

Kristianstad, Sverige

breddegrad: 55-55N, lengdegrad: 014-05E, høyde over havet: 23 m

Gjeldene værobservasjon

Denne rapporten ble laget for 35 minutter siden, klokken 19:50 UTC
Vind 2 kt fra Nord-nordvest
Temperatur 0°C
Luftfuktighet 100%
Trykk 1015 hPa
Sikt: 0150 m
underkjølt tåke

METAR: ESMK 141950Z 34002KT 0150 R01/0600N R19/0550N FZFG VV002 M00/M00 Q1015

Tid: 21:25 (20:25 UTC)

Varsel

Denne rapporten ble laget for 26 minutter siden, klokken 19:59 UTC
Varsel gyldig fra 14. klokken 19 UTC til 14. klokken 21 UTC
Vind 3 kt fra Sørøst
Sikt: 0100 m
i en høyde av 100 ft
underkjølt tåke
Midlertidig
fra 14. klokken 19 UTC til 14. klokken 21 UTC
Sikt: 1500 m
Få skyer i en høyde av 200 ft
tåkebanker

TAF: ESMK 141959Z 1419/1421 13003KT 0100 FZFG VV001 TEMPO 1419/1421 1500 BCFG FEW002

Værobservasjoner og værvarsel for over 4000 flyplasser (METAR- og TAF-rapporter).

Tilgjengelige stasjoner er representert av de røde og gule prikkene på kartet.

Hold musepekeren over prikken for å se navnet på stasjonen.

Klikk så for å se værobservasjoner og -varsler.

For å forandre kartet kan du klikke på den grønne knappen med svart kryss for å zoome inn, på den grønne knappen med strek for å zoome ut, eller på de grønne pilene for å se tilstøtende kart.


METAR-TAF: